createdAt,value
2019-05-07T00:01:17.896Z,5.53
2019-05-07T00:03:48.283Z,4.97
2019-05-07T00:06:18.751Z,6.40
2019-05-07T00:08:49.347Z,6.53
2019-05-07T00:11:22.102Z,5.43
2019-05-07T00:13:52.244Z,7.83
2019-05-07T00:16:22.452Z,6.27
2019-05-07T00:18:52.527Z,5.13
2019-05-07T00:21:23.293Z,5.03
2019-05-07T00:23:53.007Z,4.57
2019-05-07T00:26:23.383Z,9.27
2019-05-07T00:28:53.890Z,7.93
2019-05-07T00:31:24.340Z,8.03
2019-05-07T00:33:54.778Z,8.77
2019-05-07T00:36:35.329Z,7.03
2019-05-07T00:39:15.281Z,5.47
2019-05-07T00:41:52.172Z,5.70
2019-05-07T00:44:22.079Z,7.00
2019-05-07T00:46:52.510Z,8.27
2019-05-07T00:49:22.126Z,6.87
2019-05-07T00:51:52.203Z,5.13
2019-05-07T00:54:23.005Z,6.47
2019-05-07T00:56:52.360Z,6.73
2019-05-07T00:59:22.713Z,6.10
2019-05-07T01:01:53.252Z,10.20
2019-05-07T01:04:23.631Z,9.13
2019-05-07T01:06:54.072Z,6.07
2019-05-07T01:09:24.572Z,6.13
2019-05-07T01:11:55.180Z,6.53
2019-05-07T01:14:25.632Z,7.57
2019-05-07T01:16:55.964Z,6.00
2019-05-07T01:19:26.377Z,6.00
2019-05-07T01:21:56.825Z,6.53
2019-05-07T01:24:27.264Z,6.53
2019-05-07T01:26:57.564Z,9.03
2019-05-07T01:29:27.311Z,6.73
2019-05-07T01:32:03.554Z,9.60
2019-05-07T01:34:42.973Z,9.00
2019-05-07T01:37:12.419Z,7.97
2019-05-07T01:39:42.180Z,9.00
2019-05-07T01:42:12.790Z,9.47
2019-05-07T01:44:42.415Z,8.80
2019-05-07T01:47:13.164Z,7.57
2019-05-07T01:49:43.715Z,7.27
2019-05-07T01:52:14.182Z,6.73
2019-05-07T01:54:47.182Z,8.03
2019-05-07T01:57:15.358Z,9.10
2019-05-07T01:59:45.695Z,9.20
2019-05-07T02:02:22.945Z,8.27
2019-05-07T02:04:57.737Z,8.47
2019-05-07T02:07:34.306Z,7.23
2019-05-07T02:10:24.295Z,6.30
2019-05-07T02:12:54.864Z,7.00
2019-05-07T02:15:25.280Z,6.97
2019-05-07T02:17:55.774Z,6.00
2019-05-07T02:20:26.175Z,7.40
2019-05-07T02:22:56.532Z,7.87
2019-05-07T02:25:27.235Z,7.60
2019-05-07T02:27:57.716Z,7.67
2019-05-07T02:30:28.193Z,8.53
2019-05-07T02:32:57.876Z,8.43
2019-05-07T02:35:27.503Z,6.73
2019-05-07T02:38:03.144Z,8.60
2019-05-07T02:40:37.908Z,6.73
2019-05-07T02:43:08.514Z,7.37
2019-05-07T02:45:44.003Z,7.93
2019-05-07T02:48:13.635Z,7.60
2019-05-07T02:50:53.841Z,6.50
2019-05-07T02:53:28.516Z,7.80
2019-05-07T02:55:58.977Z,9.60
2019-05-07T02:58:32.856Z,9.37
2019-05-07T03:01:00.161Z,7.23
2019-05-07T03:03:33.235Z,6.33
2019-05-07T03:06:02.941Z,8.30
2019-05-07T03:08:33.026Z,7.10
2019-05-07T03:11:03.374Z,6.47
2019-05-07T03:13:33.862Z,9.37
2019-05-07T03:16:03.921Z,8.83
2019-05-07T03:18:34.316Z,8.90
2019-05-07T03:21:12.563Z,9.57
2019-05-07T03:24:16.086Z,6.60
2019-05-07T03:26:47.181Z,6.00
2019-05-07T03:29:23.627Z,6.20
2019-05-07T03:31:56.541Z,8.50
2019-05-07T03:35:06.834Z,5.60
2019-05-07T03:37:35.944Z,8.17
2019-05-07T03:40:03.772Z,7.63
2019-05-07T03:42:33.590Z,6.63
2019-05-07T03:45:17.020Z,7.53
2019-05-07T03:47:49.996Z,8.53
2019-05-07T03:50:23.094Z,8.83
2019-05-07T03:52:50.979Z,6.47
2019-05-07T03:55:23.399Z,5.70
2019-05-07T03:57:52.735Z,7.00
2019-05-07T04:00:23.919Z,6.57
2019-05-07T04:02:52.981Z,8.07
2019-05-07T04:05:23.177Z,6.97
2019-05-07T04:07:54.022Z,7.03
2019-05-07T04:10:23.609Z,6.83
2019-05-07T04:12:54.103Z,8.30
2019-05-07T04:15:24.480Z,9.20
2019-05-07T04:17:54.912Z,7.83
2019-05-07T04:20:25.367Z,7.10
2019-05-07T04:22:55.878Z,6.90
2019-05-07T04:25:34.311Z,7.97
2019-05-07T04:28:13.908Z,8.67
2019-05-07T04:30:43.871Z,9.40
2019-05-07T04:33:13.108Z,7.57
2019-05-07T04:35:47.591Z,5.67
2019-05-07T04:38:18.080Z,7.07
2019-05-07T04:40:48.341Z,6.20
2019-05-07T04:43:18.863Z,7.17
2019-05-07T04:45:49.500Z,5.77
2019-05-07T04:48:23.034Z,6.30
2019-05-07T04:50:53.916Z,10.23
2019-05-07T04:53:23.658Z,7.07
2019-05-07T04:55:53.549Z,7.63
2019-05-07T04:58:23.597Z,6.60
2019-05-07T05:00:53.797Z,7.00
2019-05-07T05:03:24.739Z,7.00
2019-05-07T05:05:55.423Z,5.27
2019-05-07T05:08:25.912Z,5.40
2019-05-07T05:10:56.357Z,6.20
2019-05-07T05:13:26.716Z,5.27
2019-05-07T05:15:57.280Z,7.53
2019-05-07T05:18:27.552Z,5.73
2019-05-07T05:21:02.900Z,6.87
2019-05-07T05:23:41.927Z,6.53
2019-05-07T05:26:12.511Z,9.23
2019-05-07T05:28:42.099Z,5.27
2019-05-07T05:31:12.750Z,6.77
2019-05-07T05:33:42.832Z,7.33
2019-05-07T05:36:12.789Z,7.47
2019-05-07T05:38:43.083Z,5.73
2019-05-07T05:41:13.676Z,7.80
2019-05-07T05:43:48.844Z,6.57
2019-05-07T05:46:19.538Z,6.10
2019-05-07T05:48:51.875Z,4.97
2019-05-07T05:51:26.139Z,5.80
2019-05-07T05:54:08.186Z,5.23
2019-05-07T05:56:44.867Z,5.30
2019-05-07T06:01:23.906Z,4.80
2019-05-07T06:04:17.368Z,5.47
2019-05-07T06:07:10.645Z,5.67
2019-05-07T06:09:37.688Z,5.33
2019-05-07T06:12:14.043Z,4.23
2019-05-07T06:14:53.927Z,5.00
2019-05-07T06:17:37.838Z,4.37
2019-05-07T06:20:13.776Z,2.80
2019-05-07T06:22:48.211Z,4.37
2019-05-07T06:25:24.751Z,4.23
2019-05-07T06:27:52.577Z,4.50
2019-05-07T06:30:22.832Z,5.23
2019-05-07T06:32:52.688Z,3.00
2019-05-07T06:35:23.143Z,4.10
2019-05-07T06:37:53.620Z,2.20
2019-05-07T06:40:29.560Z,3.83
2019-05-07T06:43:04.668Z,2.83
2019-05-07T06:45:39.359Z,3.43
2019-05-07T06:48:09.781Z,5.90
2019-05-07T06:50:40.344Z,3.83
2019-05-07T06:53:12.048Z,2.30
2019-05-07T06:55:42.771Z,3.33
2019-05-07T06:58:12.342Z,3.20
2019-05-07T07:00:47.955Z,3.67
2019-05-07T07:03:27.393Z,2.90
2019-05-07T07:06:03.043Z,3.23
2019-05-07T07:08:37.775Z,2.93
2019-05-07T07:11:18.230Z,4.63
2019-05-07T07:13:48.525Z,4.17
2019-05-07T07:16:18.886Z,5.17
2019-05-07T07:18:52.391Z,5.43
2019-05-07T07:21:21.843Z,4.20
2019-05-07T07:23:52.344Z,5.83
2019-05-07T07:26:22.043Z,4.40
2019-05-07T07:28:52.535Z,3.60
2019-05-07T07:31:28.445Z,6.90
2019-05-07T07:33:59.058Z,3.57
2019-05-07T07:36:31.902Z,5.83
2019-05-07T07:39:02.055Z,6.10
2019-05-07T07:41:36.023Z,6.43
2019-05-07T07:44:06.656Z,7.07
2019-05-07T07:46:36.592Z,7.60
2019-05-07T07:49:11.285Z,6.23
2019-05-07T07:51:41.749Z,5.07
2019-05-07T07:54:07.966Z,6.50
2019-05-07T07:56:52.378Z,5.40
2019-05-07T08:00:23.394Z,6.70
2019-05-07T08:02:57.432Z,5.93
2019-05-07T08:05:27.864Z,6.70
2019-05-07T08:07:58.385Z,8.03
2019-05-07T08:10:28.804Z,6.83
2019-05-07T08:12:59.299Z,7.53
2019-05-07T08:15:29.567Z,6.57
2019-05-07T08:18:00.082Z,10.13
2019-05-07T08:20:32.598Z,6.80
2019-05-07T08:23:02.726Z,8.37
2019-05-07T08:25:36.671Z,8.23
2019-05-07T08:28:07.176Z,7.77
2019-05-07T08:30:37.364Z,8.53
2019-05-07T08:33:14.648Z,6.83
2019-05-07T08:35:48.688Z,6.07
2019-05-07T08:38:19.105Z,7.20
2019-05-07T08:40:49.436Z,8.30
2019-05-07T08:43:21.719Z,7.83
2019-05-07T08:45:54.999Z,7.30
2019-05-07T08:48:32.073Z,6.80
2019-05-07T08:51:02.545Z,8.87
2019-05-07T08:53:32.775Z,6.50
2019-05-07T08:56:03.301Z,6.67
2019-05-07T08:58:32.169Z,9.73
2019-05-07T09:01:03.064Z,9.73
2019-05-07T09:03:38.084Z,7.70
2019-05-07T09:06:08.576Z,8.43
2019-05-07T09:08:38.967Z,8.13
2019-05-07T09:11:09.464Z,6.63
2019-05-07T09:13:42.019Z,7.67
2019-05-07T09:16:12.715Z,7.60
2019-05-07T09:18:42.207Z,7.30
2019-05-07T09:21:12.529Z,7.53
2019-05-07T09:23:42.362Z,8.87
2019-05-07T09:26:13.859Z,7.57
2019-05-07T09:28:55.606Z,7.20
2019-05-07T09:31:32.092Z,7.93
2019-05-07T09:34:02.523Z,5.53
2019-05-07T09:36:34.936Z,6.30
2019-05-07T09:39:06.375Z,8.90
2019-05-07T09:41:36.835Z,5.80
2019-05-07T09:44:07.259Z,8.63
2019-05-07T09:46:37.661Z,6.50
2019-05-07T09:49:08.139Z,7.67
2019-05-07T09:51:38.544Z,5.47
2019-05-07T09:54:08.965Z,7.20
2019-05-07T09:56:39.634Z,5.87
2019-05-07T09:59:12.560Z,8.33
2019-05-07T10:01:41.801Z,7.23
2019-05-07T10:04:12.679Z,6.17
2019-05-07T10:06:43.173Z,7.83
2019-05-07T10:09:13.616Z,6.70
2019-05-07T10:11:48.160Z,7.23
2019-05-07T10:14:18.643Z,7.27
2019-05-07T10:16:56.034Z,6.97
2019-05-07T10:19:26.458Z,8.47
2019-05-07T10:21:56.893Z,7.17
2019-05-07T10:24:27.460Z,7.00
2019-05-07T10:26:57.960Z,7.07
2019-05-07T10:29:28.471Z,5.70
2019-05-07T10:31:58.944Z,9.20
2019-05-07T10:34:29.567Z,8.77
2019-05-07T10:37:00.023Z,6.40
2019-05-07T10:39:32.420Z,7.97
2019-05-07T10:42:01.840Z,6.83
2019-05-07T10:44:35.683Z,6.93
2019-05-07T10:47:12.106Z,10.97
2019-05-07T10:49:48.474Z,7.73
2019-05-07T10:52:18.889Z,10.23
2019-05-07T10:54:57.549Z,9.67
2019-05-07T10:57:19.704Z,8.27
2019-05-07T10:59:52.244Z,9.40
2019-05-07T11:02:23.831Z,9.13
2019-05-07T11:04:53.666Z,9.87
2019-05-07T11:07:23.968Z,9.43
2019-05-07T11:09:54.491Z,9.63
2019-05-07T11:12:24.904Z,6.63
2019-05-07T11:14:55.371Z,8.37
2019-05-07T11:18:28.598Z,8.57
2019-05-07T11:20:59.119Z,7.43
2019-05-07T11:23:29.371Z,8.80
2019-05-07T11:25:59.886Z,9.87
2019-05-07T11:28:32.278Z,8.23
2019-05-07T11:31:02.067Z,9.20
2019-05-07T11:33:32.533Z,7.27
2019-05-07T11:36:02.294Z,8.50
2019-05-07T11:38:33.437Z,6.83
2019-05-07T11:41:02.952Z,7.00
2019-05-07T11:44:08.498Z,7.43
2019-05-07T11:47:43.846Z,6.37
2019-05-07T11:50:33.148Z,6.47
2019-05-07T11:53:06.471Z,7.30
2019-05-07T11:55:36.194Z,6.27
2019-05-07T11:58:06.508Z,6.00
2019-05-07T12:00:54.684Z,6.33
2019-05-07T12:03:25.009Z,7.83
2019-05-07T12:05:55.368Z,7.67
2019-05-07T12:08:37.444Z,8.93
2019-05-07T12:10:56.582Z,8.33
2019-05-07T12:13:27.355Z,7.17
2019-05-07T12:15:57.848Z,6.50
2019-05-07T12:18:28.469Z,7.87
2019-05-07T12:20:58.865Z,7.50
2019-05-07T12:23:29.328Z,6.63
2019-05-07T12:25:59.655Z,6.37
2019-05-07T12:28:29.967Z,5.93
2019-05-07T12:31:07.258Z,6.40
2019-05-07T12:33:57.673Z,4.90
2019-05-07T12:36:28.189Z,6.27
2019-05-07T12:38:58.537Z,5.63
2019-05-07T12:41:33.178Z,5.00
2019-05-07T12:44:02.628Z,5.83
2019-05-07T12:46:33.343Z,5.77
2019-05-07T12:49:03.443Z,6.80
2019-05-07T12:51:38.097Z,8.53
2019-05-07T12:54:25.353Z,8.27
2019-05-07T12:56:55.739Z,9.10
2019-05-07T12:59:26.159Z,9.37
2019-05-07T13:02:01.650Z,14.10
2019-05-07T13:04:32.578Z,11.00
2019-05-07T13:07:06.809Z,12.87
2019-05-07T13:09:37.359Z,13.57
2019-05-07T13:12:07.843Z,10.60
2019-05-07T13:14:38.272Z,13.10
2019-05-07T13:17:08.673Z,10.17
2019-05-07T13:19:39.281Z,7.17
2019-05-07T13:22:08.780Z,8.07
2019-05-07T13:24:39.243Z,7.30
2019-05-07T13:27:09.488Z,6.50
2019-05-07T13:29:42.501Z,6.07
2019-05-07T13:32:12.191Z,5.20
2019-05-07T13:34:42.826Z,7.90
2019-05-07T13:37:17.042Z,9.17
2019-05-07T13:39:52.695Z,8.33
2019-05-07T13:42:28.080Z,7.70
2019-05-07T13:45:02.890Z,7.43
2019-05-07T13:47:35.760Z,7.20
2019-05-07T13:50:07.162Z,7.90
2019-05-07T13:52:37.776Z,7.83
2019-05-07T13:55:08.812Z,7.47
2019-05-07T13:57:39.281Z,8.83
2019-05-07T14:00:12.897Z,8.90
2019-05-07T14:02:42.166Z,9.53
2019-05-07T14:05:14.240Z,10.27
2019-05-07T14:07:42.927Z,9.10
2019-05-07T14:10:13.784Z,10.23
2019-05-07T14:12:44.299Z,10.27
2019-05-07T14:15:14.988Z,10.97
2019-05-07T14:17:45.415Z,9.67
2019-05-07T14:20:16.109Z,11.57
2019-05-07T14:22:46.379Z,10.33
2019-05-07T14:25:16.949Z,7.97
2019-05-07T14:27:47.163Z,9.53
2019-05-07T14:30:18.042Z,8.70
2019-05-07T14:32:52.646Z,9.13
2019-05-07T14:35:27.876Z,7.87
2019-05-07T14:38:01.991Z,8.53
2019-05-07T14:40:32.476Z,11.43
2019-05-07T14:43:12.573Z,10.97
2019-05-07T14:45:42.241Z,8.97
2019-05-07T14:48:12.707Z,10.03
2019-05-07T14:50:44.909Z,13.93
2019-05-07T14:53:13.652Z,12.50
2019-05-07T14:55:44.125Z,9.27
2019-05-07T14:58:14.596Z,12.03
2019-05-07T15:00:44.467Z,14.93
2019-05-07T15:03:14.887Z,14.13
2019-05-07T15:05:45.368Z,15.60
2019-05-07T15:08:15.863Z,17.50
2019-05-07T15:10:46.348Z,16.63
2019-05-07T15:13:16.751Z,18.47
2019-05-07T15:15:47.193Z,17.83
2019-05-07T15:18:23.256Z,17.87
2019-05-07T15:20:53.837Z,16.53
2019-05-07T15:23:29.710Z,16.97
2019-05-07T15:26:02.673Z,16.83
2019-05-07T15:28:32.173Z,19.10
2019-05-07T15:31:12.092Z,17.20
2019-05-07T15:33:41.829Z,17.13
2019-05-07T15:36:11.968Z,15.10
2019-05-07T15:38:42.917Z,14.13
2019-05-07T15:41:12.040Z,14.40
2019-05-07T15:43:45.858Z,13.67
2019-05-07T15:46:13.111Z,13.67
2019-05-07T15:48:43.738Z,12.33
2019-05-07T15:51:16.533Z,12.60
2019-05-07T15:53:48.951Z,11.47
2019-05-07T15:56:18.639Z,11.53
2019-05-07T15:58:49.072Z,11.60
2019-05-07T16:01:22.013Z,10.47
2019-05-07T16:03:54.379Z,9.73
2019-05-07T16:06:22.022Z,11.13
2019-05-07T16:08:53.285Z,8.10
2019-05-07T16:11:23.697Z,9.33
2019-05-07T16:13:59.019Z,11.40
2019-05-07T16:16:29.597Z,9.50
2019-05-07T16:19:05.645Z,10.23
2019-05-07T16:21:36.031Z,10.53
2019-05-07T16:24:06.553Z,11.03
2019-05-07T16:26:37.053Z,9.87
2019-05-07T16:29:07.435Z,12.90
2019-05-07T16:31:39.307Z,11.53
2019-05-07T16:34:09.684Z,8.93
2019-05-07T16:36:41.916Z,11.90
2019-05-07T16:39:12.040Z,11.97
2019-05-07T16:41:42.231Z,9.60
2019-05-07T16:44:12.194Z,9.97
2019-05-07T16:46:42.416Z,9.17
2019-05-07T16:49:12.687Z,9.43
2019-05-07T16:51:44.798Z,9.07
2019-05-07T16:54:13.562Z,9.10
2019-05-07T16:56:49.064Z,9.47
2019-05-07T16:59:19.375Z,10.30
2019-05-07T17:01:52.034Z,10.20
2019-05-07T17:04:20.168Z,11.27
2019-05-07T17:06:52.159Z,11.67
2019-05-07T17:09:22.315Z,13.00
2019-05-07T17:11:52.710Z,14.47
2019-05-07T17:14:21.939Z,12.20
2019-05-07T17:16:52.347Z,13.40
2019-05-07T17:19:22.737Z,14.27
2019-05-07T17:21:53.346Z,13.00
2019-05-07T17:24:23.648Z,13.07
2019-05-07T17:26:54.132Z,13.97
2019-05-07T17:29:24.656Z,16.13
2019-05-07T17:31:55.157Z,14.03
2019-05-07T17:34:25.751Z,15.37
2019-05-07T17:36:56.336Z,16.97
2019-05-07T17:39:26.619Z,19.10
2019-05-07T17:41:57.028Z,19.63
2019-05-07T17:44:27.332Z,15.53
2019-05-07T17:46:57.771Z,16.80
2019-05-07T17:49:28.280Z,17.57
2019-05-07T17:51:58.736Z,19.17
2019-05-07T17:54:29.040Z,19.97
2019-05-07T17:56:59.376Z,16.93
2019-05-07T17:59:31.693Z,14.43
2019-05-07T18:02:05.452Z,13.80
2019-05-07T18:04:50.541Z,14.03
2019-05-07T18:07:07.297Z,12.63
2019-05-07T18:09:37.717Z,15.83
2019-05-07T18:12:07.933Z,14.43
2019-05-07T18:14:38.093Z,15.80
2019-05-07T18:17:16.321Z,16.57
2019-05-07T18:19:48.677Z,16.33
2019-05-07T18:22:19.156Z,20.20
2019-05-07T18:24:49.514Z,14.10
2019-05-07T18:27:24.128Z,16.13
2019-05-07T18:29:54.424Z,15.80
2019-05-07T18:32:28.742Z,16.50
2019-05-07T18:34:59.417Z,15.70
2019-05-07T18:37:29.656Z,15.03
2019-05-07T18:40:02.362Z,15.37
2019-05-07T18:42:32.576Z,15.10
2019-05-07T18:45:02.123Z,16.43
2019-05-07T18:47:33.130Z,20.70
2019-05-07T18:50:02.861Z,14.10
2019-05-07T18:52:32.287Z,15.83
2019-05-07T18:55:08.334Z,14.97
2019-05-07T18:57:56.201Z,17.67
2019-05-07T19:00:31.770Z,15.63
2019-05-07T19:03:03.131Z,17.10
2019-05-07T19:05:31.731Z,15.70
2019-05-07T19:08:07.697Z,16.27
2019-05-07T19:10:33.022Z,18.47
2019-05-07T19:13:03.704Z,20.47
2019-05-07T19:15:34.215Z,22.50
2019-05-07T19:18:05.026Z,32.97
2019-05-07T19:20:36.199Z,32.77
2019-05-07T19:23:06.922Z,35.00
2019-05-07T19:25:49.340Z,46.40
2019-05-07T19:28:22.218Z,47.70
2019-05-07T19:30:52.734Z,44.00
2019-05-07T19:33:26.468Z,44.37
2019-05-07T19:35:52.755Z,36.07
2019-05-07T19:38:22.513Z,40.00
2019-05-07T19:40:53.200Z,37.97
2019-05-07T19:43:23.731Z,44.27
2019-05-07T19:45:54.176Z,42.70
2019-05-07T19:48:24.710Z,82.80
2019-05-07T19:50:56.168Z,58.53
2019-05-07T19:53:26.750Z,63.67
2019-05-07T19:56:02.107Z,51.77
2019-05-07T19:58:32.787Z,42.07
2019-05-07T20:01:03.156Z,46.20
2019-05-07T20:03:33.723Z,37.30
2019-05-07T20:06:04.197Z,42.50
2019-05-07T20:08:34.912Z,47.27
2019-05-07T20:11:11.930Z,53.90
2019-05-07T20:13:41.666Z,66.67
2019-05-07T20:16:13.954Z,62.90
2019-05-07T20:18:44.293Z,73.07
2019-05-07T20:21:14.772Z,77.40
2019-05-07T20:23:45.724Z,64.80
2019-05-07T20:26:16.112Z,54.93
2019-05-07T20:28:47.067Z,44.93
2019-05-07T20:31:16.801Z,38.80
2019-05-07T20:33:47.285Z,33.10
2019-05-07T20:36:17.960Z,42.20
2019-05-07T20:38:51.896Z,33.40
2019-05-07T20:41:20.029Z,33.07
2019-05-07T20:43:52.325Z,41.90
2019-05-07T20:46:21.045Z,61.70
2019-05-07T20:48:52.604Z,58.93
2019-05-07T20:51:23.155Z,84.27
2019-05-07T20:54:12.833Z,166.17
2019-05-07T20:56:46.702Z,121.10
2019-05-07T20:59:16.187Z,49.57
2019-05-07T21:01:46.860Z,42.57
2019-05-07T21:04:17.490Z,45.20
2019-05-07T21:06:48.063Z,37.10
2019-05-07T21:09:18.515Z,33.60
2019-05-07T21:11:49.127Z,30.13
2019-05-07T21:14:19.831Z,34.63
2019-05-07T21:16:51.856Z,32.67
2019-05-07T21:19:22.306Z,29.73
2019-05-07T21:21:51.680Z,29.83
2019-05-07T21:24:22.663Z,31.57
2019-05-07T21:26:53.182Z,63.60
2019-05-07T21:29:23.507Z,49.73
2019-05-07T21:31:54.155Z,43.77
2019-05-07T21:34:24.624Z,34.30
2019-05-07T21:36:54.985Z,29.87
2019-05-07T21:39:25.022Z,43.53
2019-05-07T21:41:55.488Z,46.27
2019-05-07T21:44:26.148Z,80.63
2019-05-07T21:46:56.699Z,79.83
2019-05-07T21:49:27.292Z,105.43
2019-05-07T21:51:57.685Z,94.57
2019-05-07T21:54:34.256Z,113.87
2019-05-07T21:58:12.676Z,92.20
2019-05-07T22:00:48.252Z,79.00
2019-05-07T22:03:18.957Z,97.47
2019-05-07T22:05:51.642Z,120.03
2019-05-07T22:08:21.908Z,108.57
2019-05-07T22:10:50.837Z,63.67
2019-05-07T22:13:22.041Z,42.07
2019-05-07T22:15:52.217Z,62.97
2019-05-07T22:18:22.646Z,111.37
2019-05-07T22:20:52.319Z,102.33
2019-05-07T22:23:24.767Z,67.70
2019-05-07T22:25:53.180Z,47.33
2019-05-07T22:28:23.608Z,48.50
2019-05-07T22:30:59.076Z,51.40
2019-05-07T22:33:34.219Z,40.80
2019-05-07T22:36:04.842Z,43.10
2019-05-07T22:38:35.393Z,39.27
2019-05-07T22:41:05.912Z,40.73
2019-05-07T22:43:36.429Z,46.97
2019-05-07T22:46:06.855Z,44.33
2019-05-07T22:48:37.447Z,46.20
2019-05-07T22:51:07.923Z,48.87
2019-05-07T22:53:38.320Z,51.50
2019-05-07T22:56:08.767Z,39.63
2019-05-07T22:58:43.700Z,38.17
2019-05-07T23:01:14.291Z,60.07
2019-05-07T23:03:44.663Z,114.47
2019-05-07T23:06:15.287Z,62.63
2019-05-07T23:08:45.796Z,62.37
2019-05-07T23:11:16.252Z,55.87
2019-05-07T23:13:46.851Z,43.80
2019-05-07T23:16:17.232Z,37.60
2019-05-07T23:18:47.597Z,34.57
2019-05-07T23:21:17.956Z,36.00
2019-05-07T23:23:48.451Z,35.53
2019-05-07T23:26:18.912Z,35.70
2019-05-07T23:28:51.330Z,31.70
2019-05-07T23:31:19.739Z,60.07
2019-05-07T23:33:52.167Z,59.03
2019-05-07T23:36:22.538Z,47.73
2019-05-07T23:38:52.085Z,41.90
2019-05-07T23:41:26.731Z,42.17
2019-05-07T23:44:02.730Z,39.63
2019-05-07T23:46:32.664Z,41.70
2019-05-07T23:49:02.967Z,40.47
2019-05-07T23:51:33.417Z,44.63
2019-05-07T23:54:03.963Z,39.63
2019-05-07T23:56:34.472Z,36.00
2019-05-07T23:59:04.939Z,43.67
